HESC Airport Information

Runway Information
Runway 17 Length 6939 ft width 118 ft
Elevation 4299 ft Threshold 0 ft Heading 172
Runway 35 Length 6939 ft Width 118 ft
Elevation 4368 ft Threshold 0 ft Heading 352
Airport Frequencies
Type RDO Name Cathrine R Frequency 579 MHZ
Type TWR Name TWR Frequency 122.8 MHZ
Airport Navaids
Type NDB Name St Catherine Frequency 262 KHZ
Airport Weather Information & NOTAM
ADDS - METARS form results

(2310 UTC 25 May 2022)
Data provider http://aviationweather.gov/metar/data/
 
Forecast for: HESC (ST CATHERINE , EG)
Text: TAF HESC 252300Z 2600/2706 33010KT CAVOK
Forecast period: 0000 UTC 26 May 2022 to 0600 UTC 27 May 2022
Forecast type: FROM: standard forecast or significant change
Winds: from the NNW (330 degrees) at 12 MPH (10 knots; 5.1 m/s)
Visibility: 6 or more miles (10+ km)
Ceiling: unknown
Clouds: missing
Weather: NSW  (no significant weather)